<?xml version="1.0" encoding="UTF-8" standalone="no" ?>
<gpx xmlns="http://www.topografix.com/GPX/1/1" xmlns:xsi="http://www.w3.org/2001/XMLSchema-instance" xsi:schemaLocation="http://www.topografix.com/GPX/1/1 http://www.topografix.com/GPX/1/1/gpx.xsd" version="1.1" creator="VisuGPX - https://www.visugpx.com">
  <metadata>
    <name>Au-dessus du col de Bat-Houradade</name>
    <desc><![CDATA[Sortie en ski de randonéée avec le CAF de P[img]organisée par Roger Pourtau.]]></desc>
  </metadata>
  <wpt lat="42.87665" lon="-0.04429">
    <ele>1324.53</ele>
    <name><![CDATA[0000046]]></name>
  </wpt>
  <wpt lat="42.99755" lon="-0.07753">
    <ele>430.64</ele>
    <name><![CDATA[0000047]]></name>
  </wpt>
  <wpt lat="42.87815" lon="-0.02044">
    <ele>789.4</ele>
  </wpt>
  <wpt lat="42.87696" lon="-0.04318">
    <ele>1321.3</ele>
  </wpt>
  <trk>
    <name><![CDATA[20180415090125-15DGV]]></name>
    <trkseg>
      <trkpt lat="42.87683" lon="-0.04422">
        <ele>1348</ele>
        <time>2018-04-14T06:40:47Z</time>
      </trkpt>
      <trkpt lat="42.87684" lon="-0.04447">
        <ele>1349</ele>
        <time>2018-04-14T06:46:45Z</time>
      </trkpt>
      <trkpt lat="42.87688" lon="-0.04473">
        <ele>1351</ele>
        <time>2018-04-14T06:47:04Z</time>
      </trkpt>
      <trkpt lat="42.87688" lon="-0.04497">
        <ele>1353</ele>
        <time>2018-04-14T06:47:25Z</time>
      </trkpt>
      <trkpt lat="42.87677" lon="-0.04518">
        <ele>1362</ele>
        <time>2018-04-14T06:47:46Z</time>
      </trkpt>
      <trkpt lat="42.87667" lon="-0.04539">
        <ele>1364</ele>
        <time>2018-04-14T06:48:08Z</time>
      </trkpt>
      <trkpt lat="42.87656" lon="-0.04559">
        <ele>1369</ele>
        <time>2018-04-14T06:48:34Z</time>
      </trkpt>
      <trkpt lat="42.87643" lon="-0.04579">
        <ele>1370</ele>
        <time>2018-04-14T06:48:59Z</time>
      </trkpt>
      <trkpt lat="42.87634" lon="-0.04601">
        <ele>1375</ele>
        <time>2018-04-14T06:49:21Z</time>
      </trkpt>
      <trkpt lat="42.87634" lon="-0.04626">
        <ele>1376</ele>
        <time>2018-04-14T06:49:42Z</time>
      </trkpt>
      <trkpt lat="42.87626" lon="-0.04651">
        <ele>1377</ele>
        <time>2018-04-14T06:50:00Z</time>
      </trkpt>
      <trkpt lat="42.87618" lon="-0.04673">
        <ele>1386</ele>
        <time>2018-04-14T06:50:14Z</time>
      </trkpt>
      <trkpt lat="42.87606" lon="-0.04692">
        <ele>1386</ele>
        <time>2018-04-14T06:50:29Z</time>
      </trkpt>
      <trkpt lat="42.87594" lon="-0.0471">
        <ele>1387</ele>
        <time>2018-04-14T06:50:43Z</time>
      </trkpt>
      <trkpt lat="42.8758" lon="-0.0473">
        <ele>1382</ele>
        <time>2018-04-14T06:51:03Z</time>
      </trkpt>
      <trkpt lat="42.87599" lon="-0.04728">
        <ele>1389</ele>
        <time>2018-04-14T06:51:35Z</time>
      </trkpt>
      <trkpt lat="42.87615" lon="-0.04714">
        <ele>1390</ele>
        <time>2018-04-14T06:51:50Z</time>
      </trkpt>
      <trkpt lat="42.87627" lon="-0.04696">
        <ele>1390</ele>
        <time>2018-04-14T06:52:05Z</time>
      </trkpt>
      <trkpt lat="42.8764" lon="-0.04676">
        <ele>1390</ele>
        <time>2018-04-14T06:52:21Z</time>
      </trkpt>
      <trkpt lat="42.87653" lon="-0.04659">
        <ele>1383</ele>
        <time>2018-04-14T06:52:38Z</time>
      </trkpt>
      <trkpt lat="42.87667" lon="-0.04642">
        <ele>1388</ele>
        <time>2018-04-14T06:52:55Z</time>
      </trkpt>
      <trkpt lat="42.87682" lon="-0.04629">
        <ele>1387</ele>
        <time>2018-04-14T06:53:13Z</time>
      </trkpt>
      <trkpt lat="42.87698" lon="-0.04616">
        <ele>1387</ele>
        <time>2018-04-14T06:53:30Z</time>
      </trkpt>
      <trkpt lat="42.87714" lon="-0.04605">
        <ele>1387</ele>
        <time>2018-04-14T06:53:44Z</time>
      </trkpt>
      <trkpt lat="42.87702" lon="-0.04624">
        <ele>1389</ele>
        <time>2018-04-14T06:54:10Z</time>
      </trkpt>
      <trkpt lat="42.87688" lon="-0.04639">
        <ele>1389</ele>
        <time>2018-04-14T06:54:27Z</time>
      </trkpt>
      <trkpt lat="42.87676" lon="-0.04659">
        <ele>1390</ele>
        <time>2018-04-14T06:54:44Z</time>
      </trkpt>
      <trkpt lat="42.87667" lon="-0.04681">
        <ele>1403</ele>
        <time>2018-04-14T06:55:03Z</time>
      </trkpt>
      <trkpt lat="42.87658" lon="-0.04702">
        <ele>1394</ele>
        <time>2018-04-14T06:55:17Z</time>
      </trkpt>
      <trkpt lat="42.8765" lon="-0.04725">
        <ele>1399</ele>
        <time>2018-04-14T06:55:32Z</time>
      </trkpt>
      <trkpt lat="42.87668" lon="-0.04714">
        <ele>1416</ele>
        <time>2018-04-14T06:56:11Z</time>
      </trkpt>
      <trkpt lat="42.87676" lon="-0.04691">
        <ele>1409</ele>
        <time>2018-04-14T06:56:26Z</time>
      </trkpt>
      <trkpt lat="42.87689" lon="-0.04673">
        <ele>1408</ele>
        <time>2018-04-14T06:56:43Z</time>
      </trkpt>
      <trkpt lat="42.87703" lon="-0.04657">
        <ele>1393</ele>
        <time>2018-04-14T06:56:59Z</time>
      </trkpt>
      <trkpt lat="42.8772" lon="-0.04649">
        <ele>1396</ele>
        <time>2018-04-14T06:57:15Z</time>
      </trkpt>
      <trkpt lat="42.87738" lon="-0.04644">
        <ele>1400</ele>
        <time>2018-04-14T06:57:31Z</time>
      </trkpt>
      <trkpt lat="42.87757" lon="-0.0465">
        <ele>1417</ele>
        <time>2018-04-14T06:57:46Z</time>
      </trkpt>
      <trkpt lat="42.87776" lon="-0.04646">
        <ele>1418</ele>
        <time>2018-04-14T06:58:06Z</time>
      </trkpt>
      <trkpt lat="42.87789" lon="-0.04628">
        <ele>1417</ele>
        <time>2018-04-14T06:58:24Z</time>
      </trkpt>
      <trkpt lat="42.87803" lon="-0.04612">
        <ele>1417</ele>
        <time>2018-04-14T06:58:42Z</time>
      </trkpt>
      <trkpt lat="42.87818" lon="-0.04595">
        <ele>1417</ele>
        <time>2018-04-14T06:58:59Z</time>
      </trkpt>
      <trkpt lat="42.87818" lon="-0.04621">
        <ele>1421</ele>
        <time>2018-04-14T07:06:37Z</time>
      </trkpt>
      <trkpt lat="42.87813" lon="-0.04646">
        <ele>1427</ele>
        <time>2018-04-14T07:07:04Z</time>
      </trkpt>
      <trkpt lat="42.87831" lon="-0.04645">
        <ele>1431</ele>
        <time>2018-04-14T07:07:36Z</time>
      </trkpt>
      <trkpt lat="42.8782" lon="-0.04665">
        <ele>1437</ele>
        <time>2018-04-14T07:08:14Z</time>
      </trkpt>
      <trkpt lat="42.87815" lon="-0.04689">
        <ele>1451</ele>
        <time>2018-04-14T07:08:38Z</time>
      </trkpt>
      <trkpt lat="42.87815" lon="-0.04714">
        <ele>1456</ele>
        <time>2018-04-14T07:09:02Z</time>
      </trkpt>
      <trkpt lat="42.87799" lon="-0.04727">
        <ele>1455</ele>
        <time>2018-04-14T07:09:32Z</time>
      </trkpt>
      <trkpt lat="42.87782" lon="-0.04737">
        <ele>1453</ele>
        <time>2018-04-14T07:10:01Z</time>
      </trkpt>
      <trkpt lat="42.87766" lon="-0.0475">
        <ele>1457</ele>
        <time>2018-04-14T07:10:27Z</time>
      </trkpt>
      <trkpt lat="42.87754" lon="-0.04768">
        <ele>1469</ele>
        <time>2018-04-14T07:10:46Z</time>
      </trkpt>
      <trkpt lat="42.87743" lon="-0.04788">
        <ele>1459</ele>
        <time>2018-04-14T07:11:07Z</time>
      </trkpt>
      <trkpt lat="42.87731" lon="-0.04807">
        <ele>1464</ele>
        <time>2018-04-14T07:11:30Z</time>
      </trkpt>
      <trkpt lat="42.87724" lon="-0.0483">
        <ele>1468</ele>
        <time>2018-04-14T07:11:49Z</time>
      </trkpt>
      <trkpt lat="42.87715" lon="-0.04853">
        <ele>1491</ele>
        <time>2018-04-14T07:12:27Z</time>
      </trkpt>
      <trkpt lat="42.87706" lon="-0.04875">
        <ele>1493</ele>
        <time>2018-04-14T07:13:00Z</time>
      </trkpt>
      <trkpt lat="42.87699" lon="-0.04898">
        <ele>1496</ele>
        <time>2018-04-14T07:13:23Z</time>
      </trkpt>
      <trkpt lat="42.8769" lon="-0.0492">
        <ele>1516</ele>
        <time>2018-04-14T07:13:43Z</time>
      </trkpt>
      <trkpt lat="42.87683" lon="-0.04943">
        <ele>1520</ele>
        <time>2018-04-14T07:14:09Z</time>
      </trkpt>
      <trkpt lat="42.87674" lon="-0.04965">
        <ele>1526</ele>
        <time>2018-04-14T07:14:32Z</time>
      </trkpt>
      <trkpt lat="42.8767" lon="-0.0499">
        <ele>1528</ele>
        <time>2018-04-14T07:14:54Z</time>
      </trkpt>
      <trkpt lat="42.87662" lon="-0.05012">
        <ele>1528</ele>
        <time>2018-04-14T07:15:22Z</time>
      </trkpt>
      <trkpt lat="42.87651" lon="-0.05032">
        <ele>1531</ele>
        <time>2018-04-14T07:15:47Z</time>
      </trkpt>
      <trkpt lat="42.87639" lon="-0.05053">
        <ele>1534</ele>
        <time>2018-04-14T07:16:06Z</time>
      </trkpt>
      <trkpt lat="42.87624" lon="-0.05067">
        <ele>1534</ele>
        <time>2018-04-14T07:16:25Z</time>
      </trkpt>
      <trkpt lat="42.87606" lon="-0.05073">
        <ele>1532</ele>
        <time>2018-04-14T07:16:46Z</time>
      </trkpt>
      <trkpt lat="42.87591" lon="-0.05058">
        <ele>1530</ele>
        <time>2018-04-14T07:17:06Z</time>
      </trkpt>
      <trkpt lat="42.87574" lon="-0.05067">
        <ele>1523</ele>
        <time>2018-04-14T07:17:25Z</time>
      </trkpt>
      <trkpt lat="42.87556" lon="-0.05063">
        <ele>1518</ele>
        <time>2018-04-14T07:17:46Z</time>
      </trkpt>
      <trkpt lat="42.87548" lon="-0.05085">
        <ele>1533</ele>
        <time>2018-04-14T07:18:18Z</time>
      </trkpt>
      <trkpt lat="42.87539" lon="-0.05108">
        <ele>1533</ele>
        <time>2018-04-14T07:18:38Z</time>
      </trkpt>
      <trkpt lat="42.87527" lon="-0.05128">
        <ele>1534</ele>
        <time>2018-04-14T07:18:55Z</time>
      </trkpt>
      <trkpt lat="42.87514" lon="-0.05147">
        <ele>1535</ele>
        <time>2018-04-14T07:19:11Z</time>
      </trkpt>
      <trkpt lat="42.87498" lon="-0.0516">
        <ele>1535</ele>
        <time>2018-04-14T07:19:31Z</time>
      </trkpt>
      <trkpt lat="42.87484" lon="-0.05177">
        <ele>1541</ele>
        <time>2018-04-14T07:19:50Z</time>
      </trkpt>
      <trkpt lat="42.87477" lon="-0.052">
        <ele>1545</ele>
        <time>2018-04-14T07:20:10Z</time>
      </trkpt>
      <trkpt lat="42.87463" lon="-0.05217">
        <ele>1547</ele>
        <time>2018-04-14T07:21:09Z</time>
      </trkpt>
      <trkpt lat="42.87454" lon="-0.05238">
        <ele>1548</ele>
        <time>2018-04-14T07:21:39Z</time>
      </trkpt>
      <trkpt lat="42.87436" lon="-0.05245">
        <ele>1549</ele>
        <time>2018-04-14T07:23:02Z</time>
      </trkpt>
      <trkpt lat="42.8742" lon="-0.05237">
        <ele>1550</ele>
        <time>2018-04-14T07:24:44Z</time>
      </trkpt>
      <trkpt lat="42.87403" lon="-0.05248">
        <ele>1556</ele>
        <time>2018-04-14T07:32:59Z</time>
      </trkpt>
      <trkpt lat="42.87389" lon="-0.05264">
        <ele>1564</ele>
        <time>2018-04-14T07:33:33Z</time>
      </trkpt>
      <trkpt lat="42.87377" lon="-0.05283">
        <ele>1568</ele>
        <time>2018-04-14T07:34:08Z</time>
      </trkpt>
      <trkpt lat="42.87367" lon="-0.05305">
        <ele>1569</ele>
        <time>2018-04-14T07:34:41Z</time>
      </trkpt>
      <trkpt lat="42.8735" lon="-0.05297">
        <ele>1571</ele>
        <time>2018-04-14T07:35:15Z</time>
      </trkpt>
      <trkpt lat="42.87333" lon="-0.05288">
        <ele>1584</ele>
        <time>2018-04-14T07:35:51Z</time>
      </trkpt>
      <trkpt lat="42.87316" lon="-0.0528">
        <ele>1584</ele>
        <time>2018-04-14T07:36:33Z</time>
      </trkpt>
      <trkpt lat="42.87301" lon="-0.05264">
        <ele>1585</ele>
        <time>2018-04-14T07:37:02Z</time>
      </trkpt>
      <trkpt lat="42.87282" lon="-0.05262">
        <ele>1587</ele>
        <time>2018-04-14T07:37:34Z</time>
      </trkpt>
      <trkpt lat="42.87268" lon="-0.05278">
        <ele>1589</ele>
        <time>2018-04-14T07:38:29Z</time>
      </trkpt>
      <trkpt lat="42.8727" lon="-0.05303">
        <ele>1591</ele>
        <time>2018-04-14T07:39:05Z</time>
      </trkpt>
      <trkpt lat="42.87264" lon="-0.05326">
        <ele>1596</ele>
        <time>2018-04-14T07:39:48Z</time>
      </trkpt>
      <trkpt lat="42.87255" lon="-0.05348">
        <ele>1603</ele>
        <time>2018-04-14T07:40:21Z</time>
      </trkpt>
      <trkpt lat="42.87238" lon="-0.05339">
        <ele>1618</ele>
        <time>2018-04-14T07:41:34Z</time>
      </trkpt>
      <trkpt lat="42.8722" lon="-0.05335">
        <ele>1629</ele>
        <time>2018-04-14T07:42:33Z</time>
      </trkpt>
      <trkpt lat="42.87202" lon="-0.05328">
        <ele>1629</ele>
        <time>2018-04-14T07:43:29Z</time>
      </trkpt>
      <trkpt lat="42.87187" lon="-0.05341">
        <ele>1646</ele>
        <time>2018-04-14T07:44:08Z</time>
      </trkpt>
      <trkpt lat="42.87182" lon="-0.05365">
        <ele>1644</ele>
        <time>2018-04-14T07:44:46Z</time>
      </trkpt>
      <trkpt lat="42.87172" lon="-0.05387">
        <ele>1645</ele>
        <time>2018-04-14T07:45:18Z</time>
      </trkpt>
      <trkpt lat="42.87163" lon="-0.05408">
        <ele>1663</ele>
        <time>2018-04-14T07:45:51Z</time>
      </trkpt>
      <trkpt lat="42.87145" lon="-0.05407">
        <ele>1672</ele>
        <time>2018-04-14T07:46:50Z</time>
      </trkpt>
      <trkpt lat="42.87133" lon="-0.05388">
        <ele>1678</ele>
        <time>2018-04-14T07:47:19Z</time>
      </trkpt>
      <trkpt lat="42.87123" lon="-0.05367">
        <ele>1681</ele>
        <time>2018-04-14T07:47:56Z</time>
      </trkpt>
      <trkpt lat="42.87107" lon="-0.05355">
        <ele>1686</ele>
        <time>2018-04-14T07:48:32Z</time>
      </trkpt>
      <trkpt lat="42.87089" lon="-0.0535">
        <ele>1691</ele>
        <time>2018-04-14T07:49:14Z</time>
      </trkpt>
      <trkpt lat="42.8708" lon="-0.05372">
        <ele>1716</ele>
        <time>2018-04-14T07:49:52Z</time>
      </trkpt>
      <trkpt lat="42.87064" lon="-0.05381">
        <ele>1718</ele>
        <time>2018-04-14T07:51:08Z</time>
      </trkpt>
      <trkpt lat="42.87059" lon="-0.05406">
        <ele>1717</ele>
        <time>2018-04-14T07:51:41Z</time>
      </trkpt>
      <trkpt lat="42.87045" lon="-0.05421">
        <ele>1725</ele>
        <time>2018-04-14T07:52:23Z</time>
      </trkpt>
      <trkpt lat="42.87032" lon="-0.05438">
        <ele>1730</ele>
        <time>2018-04-14T07:52:58Z</time>
      </trkpt>
      <trkpt lat="42.87015" lon="-0.0543">
        <ele>1737</ele>
        <time>2018-04-14T07:54:52Z</time>
      </trkpt>
      <trkpt lat="42.87009" lon="-0.05406">
        <ele>1739</ele>
        <time>2018-04-14T07:55:23Z</time>
      </trkpt>
      <trkpt lat="42.86994" lon="-0.05391">
        <ele>1759</ele>
        <time>2018-04-14T07:55:51Z</time>
      </trkpt>
      <trkpt lat="42.86976" lon="-0.05391">
        <ele>1762</ele>
        <time>2018-04-14T07:57:08Z</time>
      </trkpt>
      <trkpt lat="42.8696" lon="-0.05404">
        <ele>1765</ele>
        <time>2018-04-14T07:57:48Z</time>
      </trkpt>
      <trkpt lat="42.86946" lon="-0.05419">
        <ele>1772</ele>
        <time>2018-04-14T07:58:26Z</time>
      </trkpt>
      <trkpt lat="42.86929" lon="-0.05428">
        <ele>1776</ele>
        <time>2018-04-14T07:59:15Z</time>
      </trkpt>
      <trkpt lat="42.86917" lon="-0.05447">
        <ele>1776</ele>
        <time>2018-04-14T07:59:52Z</time>
      </trkpt>
      <trkpt lat="42.869" lon="-0.05436">
        <ele>1803</ele>
        <time>2018-04-14T08:00:49Z</time>
      </trkpt>
      <trkpt lat="42.86885" lon="-0.0545">
        <ele>1810</ele>
        <time>2018-04-14T08:01:35Z</time>
      </trkpt>
      <trkpt lat="42.86868" lon="-0.0546">
        <ele>1816</ele>
        <time>2018-04-14T08:02:34Z</time>
      </trkpt>
      <trkpt lat="42.8685" lon="-0.05464">
        <ele>1821</ele>
        <time>2018-04-14T08:03:57Z</time>
      </trkpt>
      <trkpt lat="42.86843" lon="-0.05488">
        <ele>1830</ele>
        <time>2018-04-14T08:04:33Z</time>
      </trkpt>
      <trkpt lat="42.86832" lon="-0.05508">
        <ele>1851</ele>
        <time>2018-04-14T08:05:28Z</time>
      </trkpt>
      <trkpt lat="42.86815" lon="-0.05512">
        <ele>1860</ele>
        <time>2018-04-14T08:06:15Z</time>
      </trkpt>
      <trkpt lat="42.86805" lon="-0.05533">
        <ele>1866</ele>
        <time>2018-04-14T08:06:54Z</time>
      </trkpt>
      <trkpt lat="42.86799" lon="-0.05557">
        <ele>1869</ele>
        <time>2018-04-14T08:07:28Z</time>
      </trkpt>
      <trkpt lat="42.86785" lon="-0.0554">
        <ele>1872</ele>
        <time>2018-04-14T08:11:29Z</time>
      </trkpt>
      <trkpt lat="42.86766" lon="-0.05543">
        <ele>1877</ele>
        <time>2018-04-14T08:13:26Z</time>
      </trkpt>
      <trkpt lat="42.86749" lon="-0.05554">
        <ele>1909</ele>
        <time>2018-04-14T08:16:29Z</time>
      </trkpt>
      <trkpt lat="42.86741" lon="-0.05575">
        <ele>1903</ele>
        <time>2018-04-14T08:17:16Z</time>
      </trkpt>
      <trkpt lat="42.86734" lon="-0.05598">
        <ele>1906</ele>
        <time>2018-04-14T08:18:55Z</time>
      </trkpt>
      <trkpt lat="42.86721" lon="-0.05617">
        <ele>1912</ele>
        <time>2018-04-14T08:24:30Z</time>
      </trkpt>
      <trkpt lat="42.86703" lon="-0.05623">
        <ele>1917</ele>
        <time>2018-04-14T08:25:59Z</time>
      </trkpt>
      <trkpt lat="42.86686" lon="-0.05632">
        <ele>1921</ele>
        <time>2018-04-14T08:26:24Z</time>
      </trkpt>
      <trkpt lat="42.8667" lon="-0.05645">
        <ele>1924</ele>
        <time>2018-04-14T08:26:51Z</time>
      </trkpt>
      <trkpt lat="42.86657" lon="-0.05662">
        <ele>1941</ele>
        <time>2018-04-14T08:27:19Z</time>
      </trkpt>
      <trkpt lat="42.86643" lon="-0.05679">
        <ele>1939</ele>
        <time>2018-04-14T08:27:47Z</time>
      </trkpt>
      <trkpt lat="42.86631" lon="-0.05697">
        <ele>1941</ele>
        <time>2018-04-14T08:28:15Z</time>
      </trkpt>
      <trkpt lat="42.86614" lon="-0.05703">
        <ele>1943</ele>
        <time>2018-04-14T08:28:45Z</time>
      </trkpt>
      <trkpt lat="42.86595" lon="-0.05706">
        <ele>1945</ele>
        <time>2018-04-14T08:29:12Z</time>
      </trkpt>
      <trkpt lat="42.86579" lon="-0.05718">
        <ele>1959</ele>
        <time>2018-04-14T08:29:36Z</time>
      </trkpt>
      <trkpt lat="42.8656" lon="-0.05719">
        <ele>1961</ele>
        <time>2018-04-14T08:30:09Z</time>
      </trkpt>
      <trkpt lat="42.86542" lon="-0.05719">
        <ele>1963</ele>
        <time>2018-04-14T08:30:49Z</time>
      </trkpt>
      <trkpt lat="42.86524" lon="-0.05716">
        <ele>1966</ele>
        <time>2018-04-14T08:31:15Z</time>
      </trkpt>
      <trkpt lat="42.86506" lon="-0.05713">
        <ele>1968</ele>
        <time>2018-04-14T08:31:45Z</time>
      </trkpt>
      <trkpt lat="42.86493" lon="-0.05695">
        <ele>1984</ele>
        <time>2018-04-14T08:32:23Z</time>
      </trkpt>
      <trkpt lat="42.86475" lon="-0.05695">
        <ele>1985</ele>
        <time>2018-04-14T08:32:51Z</time>
      </trkpt>
      <trkpt lat="42.86457" lon="-0.05699">
        <ele>1987</ele>
        <time>2018-04-14T08:33:17Z</time>
      </trkpt>
      <trkpt lat="42.86441" lon="-0.05711">
        <ele>1988</ele>
        <time>2018-04-14T08:33:43Z</time>
      </trkpt>
      <trkpt lat="42.86423" lon="-0.05715">
        <ele>1990</ele>
        <time>2018-04-14T08:34:13Z</time>
      </trkpt>
      <trkpt lat="42.86405" lon="-0.05719">
        <ele>2003</ele>
        <time>2018-04-14T08:34:44Z</time>
      </trkpt>
      <trkpt lat="42.86387" lon="-0.05721">
        <ele>2005</ele>
        <time>2018-04-14T08:35:12Z</time>
      </trkpt>
      <trkpt lat="42.86368" lon="-0.05719">
        <ele>2008</ele>
        <time>2018-04-14T08:35:38Z</time>
      </trkpt>
      <trkpt lat="42.86351" lon="-0.05713">
        <ele>2009</ele>
        <time>2018-04-14T08:36:08Z</time>
      </trkpt>
      <trkpt lat="42.86334" lon="-0.05703">
        <ele>2010</ele>
        <time>2018-04-14T08:36:40Z</time>
      </trkpt>
      <trkpt lat="42.86316" lon="-0.05708">
        <ele>2021</ele>
        <time>2018-04-14T08:37:02Z</time>
      </trkpt>
      <trkpt lat="42.863" lon="-0.05721">
        <ele>2022</ele>
        <time>2018-04-14T08:37:25Z</time>
      </trkpt>
      <trkpt lat="42.86288" lon="-0.05739">
        <ele>2023</ele>
        <time>2018-04-14T08:37:51Z</time>
      </trkpt>
      <trkpt lat="42.86278" lon="-0.0576">
        <ele>2032</ele>
        <time>2018-04-14T08:38:18Z</time>
      </trkpt>
      <trkpt lat="42.86281" lon="-0.05785">
        <ele>2034</ele>
        <time>2018-04-14T08:38:53Z</time>
      </trkpt>
      <trkpt lat="42.86282" lon="-0.0581">
        <ele>2036</ele>
        <time>2018-04-14T08:39:25Z</time>
      </trkpt>
      <trkpt lat="42.86282" lon="-0.05834">
        <ele>2049</ele>
        <time>2018-04-14T08:39:50Z</time>
      </trkpt>
      <trkpt lat="42.86275" lon="-0.05857">
        <ele>2051</ele>
        <time>2018-04-14T08:40:21Z</time>
      </trkpt>
      <trkpt lat="42.86269" lon="-0.05881">
        <ele>2054</ele>
        <time>2018-04-14T08:40:56Z</time>
      </trkpt>
      <trkpt lat="42.86261" lon="-0.05905">
        <ele>2057</ele>
        <time>2018-04-14T08:41:33Z</time>
      </trkpt>
      <trkpt lat="42.86279" lon="-0.05911">
        <ele>2057</ele>
        <time>2018-04-14T08:42:17Z</time>
      </trkpt>
      <trkpt lat="42.86294" lon="-0.05924">
        <ele>2070</ele>
        <time>2018-04-14T08:42:45Z</time>
      </trkpt>
      <trkpt lat="42.86311" lon="-0.05933">
        <ele>2070</ele>
        <time>2018-04-14T08:43:04Z</time>
      </trkpt>
      <trkpt lat="42.86328" lon="-0.05943">
        <ele>2071</ele>
        <time>2018-04-14T08:43:22Z</time>
      </trkpt>
      <trkpt lat="42.86342" lon="-0.05961">
        <ele>2066</ele>
        <time>2018-04-14T08:43:43Z</time>
      </trkpt>
      <trkpt lat="42.86354" lon="-0.0598">
        <ele>2068</ele>
        <time>2018-04-14T08:49:31Z</time>
      </trkpt>
      <trkpt lat="42.86363" lon="-0.06002">
        <ele>2079</ele>
        <time>2018-04-14T08:49:56Z</time>
      </trkpt>
      <trkpt lat="42.86359" lon="-0.06026">
        <ele>2081</ele>
        <time>2018-04-14T08:50:26Z</time>
      </trkpt>
      <trkpt lat="42.86346" lon="-0.06043">
        <ele>2085</ele>
        <time>2018-04-14T08:51:29Z</time>
      </trkpt>
      <trkpt lat="42.86325" lon="-0.06045">
        <ele>2095</ele>
        <time>2018-04-14T08:52:11Z</time>
      </trkpt>
      <trkpt lat="42.86306" lon="-0.06051">
        <ele>2096</ele>
        <time>2018-04-14T08:52:44Z</time>
      </trkpt>
      <trkpt lat="42.86291" lon="-0.06065">
        <ele>2097</ele>
        <time>2018-04-14T08:53:18Z</time>
      </trkpt>
      <trkpt lat="42.86308" lon="-0.06076">
        <ele>2099</ele>
        <time>2018-04-14T08:56:51Z</time>
      </trkpt>
      <trkpt lat="42.86319" lon="-0.06095">
        <ele>2110</ele>
        <time>2018-04-14T08:57:29Z</time>
      </trkpt>
      <trkpt lat="42.86318" lon="-0.0612">
        <ele>2113</ele>
        <time>2018-04-14T08:57:55Z</time>
      </trkpt>
      <trkpt lat="42.86314" lon="-0.06145">
        <ele>2116</ele>
        <time>2018-04-14T08:58:26Z</time>
      </trkpt>
      <trkpt lat="42.86323" lon="-0.06167">
        <ele>2122</ele>
        <time>2018-04-14T08:58:55Z</time>
      </trkpt>
      <trkpt lat="42.8633" lon="-0.0619">
        <ele>2125</ele>
        <time>2018-04-14T08:59:19Z</time>
      </trkpt>
      <trkpt lat="42.86339" lon="-0.06212">
        <ele>2117</ele>
        <time>2018-04-14T08:59:45Z</time>
      </trkpt>
      <trkpt lat="42.86344" lon="-0.06236">
        <ele>2120</ele>
        <time>2018-04-14T09:00:09Z</time>
      </trkpt>
      <trkpt lat="42.86347" lon="-0.0626">
        <ele>2125</ele>
        <time>2018-04-14T09:00:32Z</time>
      </trkpt>
      <trkpt lat="42.86347" lon="-0.06285">
        <ele>2125</ele>
        <time>2018-04-14T09:00:45Z</time>
      </trkpt>
      <trkpt lat="42.86354" lon="-0.06308">
        <ele>2126</ele>
        <time>2018-04-14T09:01:13Z</time>
      </trkpt>
      <trkpt lat="42.86365" lon="-0.06328">
        <ele>2127</ele>
        <time>2018-04-14T09:02:18Z</time>
      </trkpt>
      <trkpt lat="42.86379" lon="-0.06346">
        <ele>2132</ele>
        <time>2018-04-14T09:02:36Z</time>
      </trkpt>
      <trkpt lat="42.86391" lon="-0.06364">
        <ele>2132</ele>
        <time>2018-04-14T09:02:57Z</time>
      </trkpt>
      <trkpt lat="42.86402" lon="-0.06385">
        <ele>2133</ele>
        <time>2018-04-14T09:03:26Z</time>
      </trkpt>
      <trkpt lat="42.86411" lon="-0.06407">
        <ele>2136</ele>
        <time>2018-04-14T09:03:48Z</time>
      </trkpt>
      <trkpt lat="42.86426" lon="-0.06421">
        <ele>2142</ele>
        <time>2018-04-14T09:04:13Z</time>
      </trkpt>
      <trkpt lat="42.8644" lon="-0.06437">
        <ele>2146</ele>
        <time>2018-04-14T09:04:36Z</time>
      </trkpt>
      <trkpt lat="42.86457" lon="-0.06448">
        <ele>2148</ele>
        <time>2018-04-14T09:05:02Z</time>
      </trkpt>
      <trkpt lat="42.86467" lon="-0.06469">
        <ele>2151</ele>
        <time>2018-04-14T09:05:40Z</time>
      </trkpt>
      <trkpt lat="42.86479" lon="-0.06489">
        <ele>2155</ele>
        <time>2018-04-14T09:06:03Z</time>
      </trkpt>
      <trkpt lat="42.86481" lon="-0.06513">
        <ele>2168</ele>
        <time>2018-04-14T09:06:46Z</time>
      </trkpt>
      <trkpt lat="42.86488" lon="-0.06537">
        <ele>2173</ele>
        <time>2018-04-14T09:07:28Z</time>
      </trkpt>
      <trkpt lat="42.86503" lon="-0.06548">
        <ele>2175</ele>
        <time>2018-04-14T09:07:48Z</time>
      </trkpt>
      <trkpt lat="42.86522" lon="-0.06546">
        <ele>2173</ele>
        <time>2018-04-14T09:08:17Z</time>
      </trkpt>
      <trkpt lat="42.86537" lon="-0.0656">
        <ele>2174</ele>
        <time>2018-04-14T09:09:02Z</time>
      </trkpt>
      <trkpt lat="42.86534" lon="-0.06586">
        <ele>2192</ele>
        <time>2018-04-14T09:09:39Z</time>
      </trkpt>
      <trkpt lat="42.86523" lon="-0.06606">
        <ele>2194</ele>
        <time>2018-04-14T09:10:06Z</time>
      </trkpt>
      <trkpt lat="42.86537" lon="-0.06622">
        <ele>2195</ele>
        <time>2018-04-14T09:10:28Z</time>
      </trkpt>
      <trkpt lat="42.86547" lon="-0.06643">
        <ele>2198</ele>
        <time>2018-04-14T09:10:57Z</time>
      </trkpt>
      <trkpt lat="42.86556" lon="-0.06664">
        <ele>2199</ele>
        <time>2018-04-14T09:11:38Z</time>
      </trkpt>
      <trkpt lat="42.86546" lon="-0.06685">
        <ele>2216</ele>
        <time>2018-04-14T09:21:13Z</time>
      </trkpt>
      <trkpt lat="42.8656" lon="-0.06701">
        <ele>2217</ele>
        <time>2018-04-14T09:21:40Z</time>
      </trkpt>
      <trkpt lat="42.86573" lon="-0.06719">
        <ele>2220</ele>
        <time>2018-04-14T09:22:07Z</time>
      </trkpt>
      <trkpt lat="42.86589" lon="-0.0673">
        <ele>2213</ele>
        <time>2018-04-14T09:22:34Z</time>
      </trkpt>
      <trkpt lat="42.86601" lon="-0.06749">
        <ele>2215</ele>
        <time>2018-04-14T09:23:11Z</time>
      </trkpt>
      <trkpt lat="42.86607" lon="-0.06773">
        <ele>2229</ele>
        <time>2018-04-14T09:23:43Z</time>
      </trkpt>
      <trkpt lat="42.8659" lon="-0.06782">
        <ele>2231</ele>
        <time>2018-04-14T09:24:28Z</time>
      </trkpt>
      <trkpt lat="42.86572" lon="-0.06788">
        <ele>2244</ele>
        <time>2018-04-14T09:24:55Z</time>
      </trkpt>
      <trkpt lat="42.86578" lon="-0.06811">
        <ele>2249</ele>
        <time>2018-04-14T09:25:34Z</time>
      </trkpt>
      <trkpt lat="42.86591" lon="-0.06828">
        <ele>2246</ele>
        <time>2018-04-14T09:26:01Z</time>
      </trkpt>
      <trkpt lat="42.86603" lon="-0.06847">
        <ele>2253</ele>
        <time>2018-04-14T09:26:29Z</time>
      </trkpt>
      <trkpt lat="42.86614" lon="-0.06867">
        <ele>2254</ele>
        <time>2018-04-14T09:26:55Z</time>
      </trkpt>
      <trkpt lat="42.86621" lon="-0.0689">
        <ele>2257</ele>
        <time>2018-04-14T09:27:21Z</time>
      </trkpt>
      <trkpt lat="42.86623" lon="-0.06915">
        <ele>2259</ele>
        <time>2018-04-14T09:27:50Z</time>
      </trkpt>
      <trkpt lat="42.86622" lon="-0.0694">
        <ele>2272</ele>
        <time>2018-04-14T09:28:23Z</time>
      </trkpt>
      <trkpt lat="42.86622" lon="-0.06965">
        <ele>2274</ele>
        <time>2018-04-14T09:28:54Z</time>
      </trkpt>
      <trkpt lat="42.86613" lon="-0.06986">
        <ele>2278</ele>
        <time>2018-04-14T09:30:52Z</time>
      </trkpt>
      <trkpt lat="42.86603" lon="-0.07009">
        <ele>2289</ele>
        <time>2018-04-14T09:32:49Z</time>
      </trkpt>
      <trkpt lat="42.86605" lon="-0.07034">
        <ele>2289</ele>
        <time>2018-04-14T09:33:16Z</time>
      </trkpt>
      <trkpt lat="42.86609" lon="-0.07059">
        <ele>2290</ele>
        <time>2018-04-14T09:33:41Z</time>
      </trkpt>
      <trkpt lat="42.86604" lon="-0.07083">
        <ele>2293</ele>
        <time>2018-04-14T09:34:25Z</time>
      </trkpt>
      <trkpt lat="42.86609" lon="-0.07108">
        <ele>2297</ele>
        <time>2018-04-14T09:34:58Z</time>
      </trkpt>
      <trkpt lat="42.86623" lon="-0.07124">
        <ele>2296</ele>
        <time>2018-04-14T09:35:08Z</time>
      </trkpt>
      <trkpt lat="42.86629" lon="-0.07148">
        <ele>2296</ele>
        <time>2018-04-14T09:35:38Z</time>
      </trkpt>
      <trkpt lat="42.86634" lon="-0.07172">
        <ele>2304</ele>
        <time>2018-04-14T09:36:00Z</time>
      </trkpt>
      <trkpt lat="42.86644" lon="-0.07195">
        <ele>2306</ele>
        <time>2018-04-14T09:36:24Z</time>
      </trkpt>
      <trkpt lat="42.86636" lon="-0.07218">
        <ele>2309</ele>
        <time>2018-04-14T09:36:51Z</time>
      </trkpt>
      <trkpt lat="42.86622" lon="-0.07234">
        <ele>2311</ele>
        <time>2018-04-14T09:37:14Z</time>
      </trkpt>
      <trkpt lat="42.86638" lon="-0.07244">
        <ele>2311</ele>
        <time>2018-04-14T09:38:43Z</time>
      </trkpt>
      <trkpt lat="42.86624" lon="-0.07261">
        <ele>2324</ele>
        <time>2018-04-14T09:39:26Z</time>
      </trkpt>
      <trkpt lat="42.86608" lon="-0.07271">
        <ele>2325</ele>
        <time>2018-04-14T09:39:53Z</time>
      </trkpt>
      <trkpt lat="42.86625" lon="-0.0728">
        <ele>2325</ele>
        <time>2018-04-14T09:40:21Z</time>
      </trkpt>
      <trkpt lat="42.8663" lon="-0.07304">
        <ele>2328</ele>
        <time>2018-04-14T09:41:07Z</time>
      </trkpt>
      <trkpt lat="42.86632" lon="-0.0733">
        <ele>2330</ele>
        <time>2018-04-14T09:41:31Z</time>
      </trkpt>
      <trkpt lat="42.86639" lon="-0.07353">
        <ele>2343</ele>
        <time>2018-04-14T09:42:33Z</time>
      </trkpt>
      <trkpt lat="42.86657" lon="-0.07354">
        <ele>2341</ele>
        <time>2018-04-14T09:43:18Z</time>
      </trkpt>
      <trkpt lat="42.86649" lon="-0.07376">
        <ele>2345</ele>
        <time>2018-04-14T09:44:05Z</time>
      </trkpt>
      <trkpt lat="42.86658" lon="-0.07399">
        <ele>2348</ele>
        <time>2018-04-14T09:44:44Z</time>
      </trkpt>
      <trkpt lat="42.86645" lon="-0.07418">
        <ele>2358</ele>
        <time>2018-04-14T09:45:25Z</time>
      </trkpt>
      <trkpt lat="42.86643" lon="-0.07442">
        <ele>2361</ele>
        <time>2018-04-14T09:46:16Z</time>
      </trkpt>
      <trkpt lat="42.86634" lon="-0.07464">
        <ele>2363</ele>
        <time>2018-04-14T09:46:55Z</time>
      </trkpt>
      <trkpt lat="42.86616" lon="-0.07468">
        <ele>2364</ele>
        <time>2018-04-14T09:47:23Z</time>
      </trkpt>
      <trkpt lat="42.86598" lon="-0.07475">
        <ele>2365</ele>
        <time>2018-04-14T09:47:49Z</time>
      </trkpt>
      <trkpt lat="42.86583" lon="-0.07488">
        <ele>2371</ele>
        <time>2018-04-14T09:48:15Z</time>
      </trkpt>
      <trkpt lat="42.86567" lon="-0.07502">
        <ele>2375</ele>
        <time>2018-04-14T09:55:35Z</time>
      </trkpt>
      <trkpt lat="42.86551" lon="-0.07514">
        <ele>2378</ele>
        <time>2018-04-14T09:56:08Z</time>
      </trkpt>
      <trkpt lat="42.86535" lon="-0.07525">
        <ele>2381</ele>
        <time>2018-04-14T09:56:37Z</time>
      </trkpt>
      <trkpt lat="42.8652" lon="-0.0754">
        <ele>2383</ele>
        <time>2018-04-14T09:57:10Z</time>
      </trkpt>
      <trkpt lat="42.86519" lon="-0.07566">
        <ele>2385</ele>
        <time>2018-04-14T09:57:47Z</time>
      </trkpt>
      <trkpt lat="42.86513" lon="-0.0759">
        <ele>2393</ele>
        <time>2018-04-14T09:58:21Z</time>
      </trkpt>
      <trkpt lat="42.86498" lon="-0.07576">
        <ele>2400</ele>
        <time>2018-04-14T09:59:17Z</time>
      </trkpt>
      <trkpt lat="42.86483" lon="-0.0759">
        <ele>2409</ele>
        <time>2018-04-14T10:03:36Z</time>
      </trkpt>
      <trkpt lat="42.86468" lon="-0.07577">
        <ele>2413</ele>
        <time>2018-04-14T10:04:28Z</time>
      </trkpt>
      <trkpt lat="42.86468" lon="-0.07602">
        <ele>2417</ele>
        <time>2018-04-14T10:05:38Z</time>
      </trkpt>
      <trkpt lat="42.86468" lon="-0.07627">
        <ele>2419</ele>
        <time>2018-04-14T10:06:13Z</time>
      </trkpt>
      <trkpt lat="42.8645" lon="-0.0762">
        <ele>2423</ele>
        <time>2018-04-14T10:07:09Z</time>
      </trkpt>
      <trkpt lat="42.86434" lon="-0.07609">
        <ele>2426</ele>
        <time>2018-04-14T10:07:43Z</time>
      </trkpt>
      <trkpt lat="42.86423" lon="-0.07629">
        <ele>2428</ele>
        <time>2018-04-14T10:08:27Z</time>
      </trkpt>
      <trkpt lat="42.8641" lon="-0.07646">
        <ele>2449</ele>
        <time>2018-04-14T10:09:03Z</time>
      </trkpt>
      <trkpt lat="42.864" lon="-0.07667">
        <ele>2445</ele>
        <time>2018-04-14T10:09:34Z</time>
      </trkpt>
      <trkpt lat="42.86382" lon="-0.07662">
        <ele>2452</ele>
        <time>2018-04-14T10:12:37Z</time>
      </trkpt>
      <trkpt lat="42.86365" lon="-0.07654">
        <ele>2455</ele>
        <time>2018-04-14T10:13:42Z</time>
      </trkpt>
      <trkpt lat="42.86348" lon="-0.07663">
        <ele>2454</ele>
        <time>2018-04-14T10:14:18Z</time>
      </trkpt>
      <trkpt lat="42.86352" lon="-0.07639">
        <ele>2458</ele>
        <time>2018-04-14T10:15:20Z</time>
      </trkpt>
      <trkpt lat="42.86354" lon="-0.07614">
        <ele>2464</ele>
        <time>2018-04-14T10:15:58Z</time>
      </trkpt>
      <trkpt lat="42.8634" lon="-0.07598">
        <ele>2478</ele>
        <time>2018-04-14T10:17:37Z</time>
      </trkpt>
      <trkpt lat="42.86328" lon="-0.07579">
        <ele>2500</ele>
        <time>2018-04-14T10:19:22Z</time>
      </trkpt>
      <trkpt lat="42.86313" lon="-0.07595">
        <ele>2477</ele>
        <time>2018-04-14T10:19:54Z</time>
      </trkpt>
      <trkpt lat="42.8632" lon="-0.07571">
        <ele>2502</ele>
        <time>2018-04-14T10:20:30Z</time>
      </trkpt>
      <trkpt lat="42.86309" lon="-0.07551">
        <ele>2506</ele>
        <time>2018-04-14T10:22:05Z</time>
      </trkpt>
      <trkpt lat="42.86303" lon="-0.07527">
        <ele>2510</ele>
        <time>2018-04-14T10:23:14Z</time>
      </trkpt>
      <trkpt lat="42.86292" lon="-0.07505">
        <ele>2513</ele>
        <time>2018-04-14T10:23:40Z</time>
      </trkpt>
      <trkpt lat="42.86282" lon="-0.07485">
        <ele>2527</ele>
        <time>2018-04-14T10:24:05Z</time>
      </trkpt>
      <trkpt lat="42.86274" lon="-0.07462">
        <ele>2529</ele>
        <time>2018-04-14T10:24:33Z</time>
      </trkpt>
      <trkpt lat="42.86259" lon="-0.07446">
        <ele>2533</ele>
        <time>2018-04-14T10:26:32Z</time>
      </trkpt>
      <trkpt lat="42.86241" lon="-0.0745">
        <ele>2528</ele>
        <time>2018-04-14T10:27:44Z</time>
      </trkpt>
      <trkpt lat="42.86228" lon="-0.07432">
        <ele>2529</ele>
        <time>2018-04-14T10:29:07Z</time>
      </trkpt>
      <trkpt lat="42.86221" lon="-0.07409">
        <ele>2540</ele>
        <time>2018-04-14T10:29:39Z</time>
      </trkpt>
      <trkpt lat="42.8622" lon="-0.07385">
        <ele>2540</ele>
        <time>2018-04-14T10:30:14Z</time>
      </trkpt>
      <trkpt lat="42.8621" lon="-0.07364">
        <ele>2539</ele>
        <time>2018-04-14T10:32:56Z</time>
      </trkpt>
      <trkpt lat="42.86215" lon="-0.0734">
        <ele>2541</ele>
        <time>2018-04-14T10:33:38Z</time>
      </trkpt>
      <trkpt lat="42.86232" lon="-0.0733">
        <ele>2546</ele>
        <time>2018-04-14T10:56:40Z</time>
      </trkpt>
      <trkpt lat="42.86246" lon="-0.0735">
        <ele>2542</ele>
        <time>2018-04-14T10:56:46Z</time>
      </trkpt>
      <trkpt lat="42.86256" lon="-0.07372">
        <ele>2537</ele>
        <time>2018-04-14T10:56:52Z</time>
      </trkpt>
      <trkpt lat="42.86266" lon="-0.07393">
        <ele>2537</ele>
        <time>2018-04-14T10:56:57Z</time>
      </trkpt>
      <trkpt lat="42.86266" lon="-0.0742">
        <ele>2537</ele>
        <time>2018-04-14T10:57:00Z</time>
      </trkpt>
      <trkpt lat="42.86266" lon="-0.07445">
        <ele>2532</ele>
        <time>2018-04-14T10:57:03Z</time>
      </trkpt>
      <trkpt lat="42.86287" lon="-0.07451">
        <ele>2528</ele>
        <time>2018-04-14T11:22:41Z</time>
      </trkpt>
      <trkpt lat="42.86309" lon="-0.07462">
        <ele>2524</ele>
        <time>2018-04-14T11:22:45Z</time>
      </trkpt>
      <trkpt lat="42.86325" lon="-0.07473">
        <ele>2522</ele>
        <time>2018-04-14T11:22:48Z</time>
      </trkpt>
      <trkpt lat="42.86323" lon="-0.07498">
        <ele>2519</ele>
        <time>2018-04-14T11:22:52Z</time>
      </trkpt>
      <trkpt lat="42.8632" lon="-0.07526">
        <ele>2510</ele>
        <time>2018-04-14T11:22:58Z</time>
      </trkpt>
      <trkpt lat="42.86324" lon="-0.07552">
        <ele>2505</ele>
        <time>2018-04-14T11:23:24Z</time>
      </trkpt>
      <trkpt lat="42.86343" lon="-0.07559">
        <ele>2485</ele>
        <time>2018-04-14T11:23:38Z</time>
      </trkpt>
      <trkpt lat="42.8636" lon="-0.07548">
        <ele>2480</ele>
        <time>2018-04-14T11:23:52Z</time>
      </trkpt>
      <trkpt lat="42.86379" lon="-0.07555">
        <ele>2472</ele>
        <time>2018-04-14T11:23:59Z</time>
      </trkpt>
      <trkpt lat="42.86396" lon="-0.07566">
        <ele>2462</ele>
        <time>2018-04-14T11:24:07Z</time>
      </trkpt>
      <trkpt lat="42.86413" lon="-0.07574">
        <ele>2449</ele>
        <time>2018-04-14T11:24:15Z</time>
      </trkpt>
      <trkpt lat="42.86433" lon="-0.07578">
        <ele>2427</ele>
        <time>2018-04-14T11:24:23Z</time>
      </trkpt>
      <trkpt lat="42.86451" lon="-0.07573">
        <ele>2420</ele>
        <time>2018-04-14T11:31:55Z</time>
      </trkpt>
      <trkpt lat="42.8647" lon="-0.07562">
        <ele>2413</ele>
        <time>2018-04-14T11:32:00Z</time>
      </trkpt>
      <trkpt lat="42.86486" lon="-0.07541">
        <ele>2409</ele>
        <time>2018-04-14T11:32:05Z</time>
      </trkpt>
      <trkpt lat="42.86503" lon="-0.07529">
        <ele>2384</ele>
        <time>2018-04-14T11:32:09Z</time>
      </trkpt>
      <trkpt lat="42.8652" lon="-0.07511">
        <ele>2383</ele>
        <time>2018-04-14T11:32:13Z</time>
      </trkpt>
      <trkpt lat="42.8654" lon="-0.07485">
        <ele>2376</ele>
        <time>2018-04-14T11:32:16Z</time>
      </trkpt>
      <trkpt lat="42.86553" lon="-0.07464">
        <ele>2373</ele>
        <time>2018-04-14T11:32:18Z</time>
      </trkpt>
      <trkpt lat="42.86567" lon="-0.07437">
        <ele>2369</ele>
        <time>2018-04-14T11:32:21Z</time>
      </trkpt>
      <trkpt lat="42.86584" lon="-0.0742">
        <ele>2359</ele>
        <time>2018-04-14T11:34:16Z</time>
      </trkpt>
      <trkpt lat="42.86594" lon="-0.074">
        <ele>2352</ele>
        <time>2018-04-14T11:34:21Z</time>
      </trkpt>
      <trkpt lat="42.86599" lon="-0.07373">
        <ele>2347</ele>
        <time>2018-04-14T11:34:27Z</time>
      </trkpt>
      <trkpt lat="42.86585" lon="-0.07356">
        <ele>2344</ele>
        <time>2018-04-14T11:34:32Z</time>
      </trkpt>
      <trkpt lat="42.86579" lon="-0.07328">
        <ele>2344</ele>
        <time>2018-04-14T11:34:37Z</time>
      </trkpt>
      <trkpt lat="42.86589" lon="-0.07301">
        <ele>2330</ele>
        <time>2018-04-14T11:34:42Z</time>
      </trkpt>
      <trkpt lat="42.86594" lon="-0.07275">
        <ele>2326</ele>
        <time>2018-04-14T11:34:46Z</time>
      </trkpt>
      <trkpt lat="42.86584" lon="-0.07296">
        <ele>2329</ele>
        <time>2018-04-14T11:39:35Z</time>
      </trkpt>
      <trkpt lat="42.86583" lon="-0.07321">
        <ele>2345</ele>
        <time>2018-04-14T11:40:01Z</time>
      </trkpt>
      <trkpt lat="42.86577" lon="-0.07345">
        <ele>2351</ele>
        <time>2018-04-14T11:41:03Z</time>
      </trkpt>
      <trkpt lat="42.8658" lon="-0.07369">
        <ele>2359</ele>
        <time>2018-04-14T11:41:29Z</time>
      </trkpt>
      <trkpt lat="42.86574" lon="-0.0737">
        <ele>2360</ele>
        <time>2018-04-14T11:47:07Z</time>
      </trkpt>
      <trkpt lat="42.86591" lon="-0.0736">
        <ele>2345</ele>
        <time>2018-04-14T11:59:40Z</time>
      </trkpt>
      <trkpt lat="42.86581" lon="-0.07331">
        <ele>2342</ele>
        <time>2018-04-14T12:49:39Z</time>
      </trkpt>
      <trkpt lat="42.86581" lon="-0.073">
        <ele>2347</ele>
        <time>2018-04-14T12:49:42Z</time>
      </trkpt>
      <trkpt lat="42.86584" lon="-0.07276">
        <ele>2326</ele>
        <time>2018-04-14T12:49:45Z</time>
      </trkpt>
      <trkpt lat="42.86581" lon="-0.07245">
        <ele>2326</ele>
        <time>2018-04-14T12:49:49Z</time>
      </trkpt>
      <trkpt lat="42.86574" lon="-0.07215">
        <ele>2334</ele>
        <time>2018-04-14T12:49:52Z</time>
      </trkpt>
      <trkpt lat="42.86569" lon="-0.0718">
        <ele>2326</ele>
        <time>2018-04-14T12:49:55Z</time>
      </trkpt>
      <trkpt lat="42.86572" lon="-0.07153">
        <ele>2321</ele>
        <time>2018-04-14T12:49:57Z</time>
      </trkpt>
      <trkpt lat="42.86579" lon="-0.0712">
        <ele>2324</ele>
        <time>2018-04-14T12:50:00Z</time>
      </trkpt>
      <trkpt lat="42.86588" lon="-0.0709">
        <ele>2299</ele>
        <time>2018-04-14T12:50:03Z</time>
      </trkpt>
      <trkpt lat="42.86606" lon="-0.07083">
        <ele>2292</ele>
        <time>2018-04-14T12:51:44Z</time>
      </trkpt>
      <trkpt lat="42.8661" lon="-0.07057">
        <ele>2289</ele>
        <time>2018-04-14T12:52:00Z</time>
      </trkpt>
      <trkpt lat="42.86609" lon="-0.07029">
        <ele>2288</ele>
        <time>2018-04-14T12:52:05Z</time>
      </trkpt>
      <trkpt lat="42.86611" lon="-0.07">
        <ele>2288</ele>
        <time>2018-04-14T12:52:11Z</time>
      </trkpt>
      <trkpt lat="42.86607" lon="-0.06973">
        <ele>2278</ele>
        <time>2018-04-14T12:52:18Z</time>
      </trkpt>
      <trkpt lat="42.86601" lon="-0.0695">
        <ele>2276</ele>
        <time>2018-04-14T12:52:29Z</time>
      </trkpt>
      <trkpt lat="42.86593" lon="-0.06928">
        <ele>2276</ele>
        <time>2018-04-14T12:53:17Z</time>
      </trkpt>
      <trkpt lat="42.86582" lon="-0.06906">
        <ele>2278</ele>
        <time>2018-04-14T12:53:23Z</time>
      </trkpt>
      <trkpt lat="42.86572" lon="-0.06884">
        <ele>2275</ele>
        <time>2018-04-14T12:53:28Z</time>
      </trkpt>
      <trkpt lat="42.86557" lon="-0.06868">
        <ele>2273</ele>
        <time>2018-04-14T12:53:32Z</time>
      </trkpt>
      <trkpt lat="42.86557" lon="-0.06841">
        <ele>2268</ele>
        <time>2018-04-14T12:53:38Z</time>
      </trkpt>
      <trkpt lat="42.86552" lon="-0.06815">
        <ele>2250</ele>
        <time>2018-04-14T12:53:42Z</time>
      </trkpt>
      <trkpt lat="42.86554" lon="-0.06788">
        <ele>2246</ele>
        <time>2018-04-14T12:53:46Z</time>
      </trkpt>
      <trkpt lat="42.86565" lon="-0.06764">
        <ele>2239</ele>
        <time>2018-04-14T12:53:50Z</time>
      </trkpt>
      <trkpt lat="42.86571" lon="-0.06736">
        <ele>2223</ele>
        <time>2018-04-14T12:53:54Z</time>
      </trkpt>
      <trkpt lat="42.86572" lon="-0.06711">
        <ele>2219</ele>
        <time>2018-04-14T12:53:57Z</time>
      </trkpt>
      <trkpt lat="42.86562" lon="-0.06689">
        <ele>2215</ele>
        <time>2018-04-14T12:54:48Z</time>
      </trkpt>
      <trkpt lat="42.86549" lon="-0.06666">
        <ele>2199</ele>
        <time>2018-04-14T12:54:54Z</time>
      </trkpt>
      <trkpt lat="42.86545" lon="-0.06635">
        <ele>2197</ele>
        <time>2018-04-14T12:54:58Z</time>
      </trkpt>
      <trkpt lat="42.86532" lon="-0.06613">
        <ele>2194</ele>
        <time>2018-04-14T12:55:01Z</time>
      </trkpt>
      <trkpt lat="42.86533" lon="-0.06587">
        <ele>2192</ele>
        <time>2018-04-14T12:55:04Z</time>
      </trkpt>
      <trkpt lat="42.86536" lon="-0.06557">
        <ele>2174</ele>
        <time>2018-04-14T12:55:22Z</time>
      </trkpt>
      <trkpt lat="42.86522" lon="-0.06542">
        <ele>2172</ele>
        <time>2018-04-14T12:55:33Z</time>
      </trkpt>
      <trkpt lat="42.86499" lon="-0.06546">
        <ele>2175</ele>
        <time>2018-04-14T12:55:38Z</time>
      </trkpt>
      <trkpt lat="42.86491" lon="-0.06524">
        <ele>2170</ele>
        <time>2018-04-14T12:56:04Z</time>
      </trkpt>
      <trkpt lat="42.8649" lon="-0.06497">
        <ele>2158</ele>
        <time>2018-04-14T12:56:10Z</time>
      </trkpt>
      <trkpt lat="42.8648" lon="-0.0647">
        <ele>2152</ele>
        <time>2018-04-14T12:56:14Z</time>
      </trkpt>
      <trkpt lat="42.86466" lon="-0.06448">
        <ele>2148</ele>
        <time>2018-04-14T12:56:20Z</time>
      </trkpt>
      <trkpt lat="42.8645" lon="-0.06436">
        <ele>2147</ele>
        <time>2018-04-14T12:56:26Z</time>
      </trkpt>
      <trkpt lat="42.86429" lon="-0.0643">
        <ele>2144</ele>
        <time>2018-04-14T12:57:00Z</time>
      </trkpt>
      <trkpt lat="42.86417" lon="-0.06403">
        <ele>2135</ele>
        <time>2018-04-14T12:57:05Z</time>
      </trkpt>
      <trkpt lat="42.86407" lon="-0.06379">
        <ele>2133</ele>
        <time>2018-04-14T12:57:08Z</time>
      </trkpt>
      <trkpt lat="42.86394" lon="-0.06356">
        <ele>2131</ele>
        <time>2018-04-14T12:57:11Z</time>
      </trkpt>
      <trkpt lat="42.86378" lon="-0.06333">
        <ele>2126</ele>
        <time>2018-04-14T12:57:14Z</time>
      </trkpt>
      <trkpt lat="42.86365" lon="-0.06314">
        <ele>2126</ele>
        <time>2018-04-14T12:57:19Z</time>
      </trkpt>
      <trkpt lat="42.86358" lon="-0.0629">
        <ele>2125</ele>
        <time>2018-04-14T12:57:24Z</time>
      </trkpt>
      <trkpt lat="42.86362" lon="-0.06263">
        <ele>2124</ele>
        <time>2018-04-14T12:57:32Z</time>
      </trkpt>
      <trkpt lat="42.86368" lon="-0.06237">
        <ele>2116</ele>
        <time>2018-04-14T12:57:39Z</time>
      </trkpt>
      <trkpt lat="42.86369" lon="-0.06211">
        <ele>2114</ele>
        <time>2018-04-14T12:57:47Z</time>
      </trkpt>
      <trkpt lat="42.86372" lon="-0.06186">
        <ele>2112</ele>
        <time>2018-04-14T12:57:56Z</time>
      </trkpt>
      <trkpt lat="42.86372" lon="-0.06161">
        <ele>2103</ele>
        <time>2018-04-14T12:58:02Z</time>
      </trkpt>
      <trkpt lat="42.86364" lon="-0.06135">
        <ele>2102</ele>
        <time>2018-04-14T12:58:08Z</time>
      </trkpt>
      <trkpt lat="42.86355" lon="-0.06114">
        <ele>2101</ele>
        <time>2018-04-14T12:58:15Z</time>
      </trkpt>
      <trkpt lat="42.8635" lon="-0.06085">
        <ele>2102</ele>
        <time>2018-04-14T12:58:24Z</time>
      </trkpt>
      <trkpt lat="42.8634" lon="-0.06063">
        <ele>2091</ele>
        <time>2018-04-14T12:58:31Z</time>
      </trkpt>
      <trkpt lat="42.86321" lon="-0.06051">
        <ele>2096</ele>
        <time>2018-04-14T12:59:11Z</time>
      </trkpt>
      <trkpt lat="42.86343" lon="-0.0604">
        <ele>2085</ele>
        <time>2018-04-14T12:59:28Z</time>
      </trkpt>
      <trkpt lat="42.86353" lon="-0.06019">
        <ele>2082</ele>
        <time>2018-04-14T12:59:32Z</time>
      </trkpt>
      <trkpt lat="42.86353" lon="-0.05992">
        <ele>2071</ele>
        <time>2018-04-14T13:02:15Z</time>
      </trkpt>
      <trkpt lat="42.86344" lon="-0.05966">
        <ele>2067</ele>
        <time>2018-04-14T13:02:19Z</time>
      </trkpt>
      <trkpt lat="42.86329" lon="-0.0595">
        <ele>2072</ele>
        <time>2018-04-14T13:02:32Z</time>
      </trkpt>
      <trkpt lat="42.86312" lon="-0.05939">
        <ele>2071</ele>
        <time>2018-04-14T13:02:39Z</time>
      </trkpt>
      <trkpt lat="42.86295" lon="-0.05927">
        <ele>2070</ele>
        <time>2018-04-14T13:02:50Z</time>
      </trkpt>
      <trkpt lat="42.86276" lon="-0.0592">
        <ele>2068</ele>
        <time>2018-04-14T13:03:01Z</time>
      </trkpt>
      <trkpt lat="42.86264" lon="-0.05899">
        <ele>2056</ele>
        <time>2018-04-14T13:03:09Z</time>
      </trkpt>
      <trkpt lat="42.86273" lon="-0.05872">
        <ele>2053</ele>
        <time>2018-04-14T13:03:13Z</time>
      </trkpt>
      <trkpt lat="42.86279" lon="-0.05845">
        <ele>2050</ele>
        <time>2018-04-14T13:03:17Z</time>
      </trkpt>
      <trkpt lat="42.86287" lon="-0.0582">
        <ele>2037</ele>
        <time>2018-04-14T13:03:20Z</time>
      </trkpt>
      <trkpt lat="42.86297" lon="-0.05796">
        <ele>2035</ele>
        <time>2018-04-14T13:03:28Z</time>
      </trkpt>
      <trkpt lat="42.86309" lon="-0.05772">
        <ele>2031</ele>
        <time>2018-04-14T13:03:35Z</time>
      </trkpt>
      <trkpt lat="42.86318" lon="-0.0575">
        <ele>2021</ele>
        <time>2018-04-14T13:03:39Z</time>
      </trkpt>
      <trkpt lat="42.86334" lon="-0.05734">
        <ele>2013</ele>
        <time>2018-04-14T13:03:43Z</time>
      </trkpt>
      <trkpt lat="42.86353" lon="-0.05725">
        <ele>2010</ele>
        <time>2018-04-14T13:03:47Z</time>
      </trkpt>
      <trkpt lat="42.86371" lon="-0.05719">
        <ele>2007</ele>
        <time>2018-04-14T13:03:51Z</time>
      </trkpt>
      <trkpt lat="42.86391" lon="-0.05719">
        <ele>2004</ele>
        <time>2018-04-14T13:04:11Z</time>
      </trkpt>
      <trkpt lat="42.86412" lon="-0.05721">
        <ele>2002</ele>
        <time>2018-04-14T13:04:17Z</time>
      </trkpt>
      <trkpt lat="42.86431" lon="-0.0572">
        <ele>1989</ele>
        <time>2018-04-14T13:04:21Z</time>
      </trkpt>
      <trkpt lat="42.8645" lon="-0.05719">
        <ele>1987</ele>
        <time>2018-04-14T13:04:28Z</time>
      </trkpt>
      <trkpt lat="42.86466" lon="-0.05707">
        <ele>1985</ele>
        <time>2018-04-14T13:04:34Z</time>
      </trkpt>
      <trkpt lat="42.86485" lon="-0.05699">
        <ele>1984</ele>
        <time>2018-04-14T13:05:35Z</time>
      </trkpt>
      <trkpt lat="42.86508" lon="-0.05705">
        <ele>1969</ele>
        <time>2018-04-14T13:05:39Z</time>
      </trkpt>
      <trkpt lat="42.86528" lon="-0.05708">
        <ele>1966</ele>
        <time>2018-04-14T13:05:43Z</time>
      </trkpt>
      <trkpt lat="42.86547" lon="-0.05699">
        <ele>1964</ele>
        <time>2018-04-14T13:05:50Z</time>
      </trkpt>
      <trkpt lat="42.86562" lon="-0.05687">
        <ele>1963</ele>
        <time>2018-04-14T13:05:59Z</time>
      </trkpt>
      <trkpt lat="42.8658" lon="-0.05684">
        <ele>1961</ele>
        <time>2018-04-14T13:06:08Z</time>
      </trkpt>
      <trkpt lat="42.866" lon="-0.05682">
        <ele>1948</ele>
        <time>2018-04-14T13:06:17Z</time>
      </trkpt>
      <trkpt lat="42.86619" lon="-0.05671">
        <ele>1945</ele>
        <time>2018-04-14T13:06:25Z</time>
      </trkpt>
      <trkpt lat="42.86635" lon="-0.05657">
        <ele>1950</ele>
        <time>2018-04-14T13:06:31Z</time>
      </trkpt>
      <trkpt lat="42.86641" lon="-0.05629">
        <ele>1952</ele>
        <time>2018-04-14T13:07:04Z</time>
      </trkpt>
      <trkpt lat="42.86661" lon="-0.05639">
        <ele>1947</ele>
        <time>2018-04-14T13:07:10Z</time>
      </trkpt>
      <trkpt lat="42.86679" lon="-0.05627">
        <ele>1922</ele>
        <time>2018-04-14T13:07:15Z</time>
      </trkpt>
      <trkpt lat="42.86699" lon="-0.0562">
        <ele>1918</ele>
        <time>2018-04-14T13:07:20Z</time>
      </trkpt>
      <trkpt lat="42.86719" lon="-0.05607">
        <ele>1912</ele>
        <time>2018-04-14T13:07:25Z</time>
      </trkpt>
      <trkpt lat="42.86725" lon="-0.0558">
        <ele>1911</ele>
        <time>2018-04-14T13:08:14Z</time>
      </trkpt>
      <trkpt lat="42.86745" lon="-0.05575">
        <ele>1902</ele>
        <time>2018-04-14T13:08:20Z</time>
      </trkpt>
      <trkpt lat="42.8674" lon="-0.05545">
        <ele>1911</ele>
        <time>2018-04-14T13:08:27Z</time>
      </trkpt>
      <trkpt lat="42.86759" lon="-0.0554">
        <ele>1878</ele>
        <time>2018-04-14T13:08:39Z</time>
      </trkpt>
      <trkpt lat="42.86774" lon="-0.05555">
        <ele>1876</ele>
        <time>2018-04-14T13:08:44Z</time>
      </trkpt>
      <trkpt lat="42.86784" lon="-0.05534">
        <ele>1872</ele>
        <time>2018-04-14T13:08:53Z</time>
      </trkpt>
      <trkpt lat="42.86805" lon="-0.05534">
        <ele>1867</ele>
        <time>2018-04-14T13:08:57Z</time>
      </trkpt>
      <trkpt lat="42.86809" lon="-0.05509">
        <ele>1862</ele>
        <time>2018-04-14T13:09:02Z</time>
      </trkpt>
      <trkpt lat="42.86817" lon="-0.05483">
        <ele>1857</ele>
        <time>2018-04-14T13:09:08Z</time>
      </trkpt>
      <trkpt lat="42.86835" lon="-0.05481">
        <ele>1829</ele>
        <time>2018-04-14T13:09:34Z</time>
      </trkpt>
      <trkpt lat="42.86854" lon="-0.0547">
        <ele>1821</ele>
        <time>2018-04-14T13:09:41Z</time>
      </trkpt>
      <trkpt lat="42.86872" lon="-0.05466">
        <ele>1815</ele>
        <time>2018-04-14T13:09:46Z</time>
      </trkpt>
      <trkpt lat="42.86892" lon="-0.05456">
        <ele>1809</ele>
        <time>2018-04-14T13:09:51Z</time>
      </trkpt>
      <trkpt lat="42.86911" lon="-0.05447">
        <ele>1803</ele>
        <time>2018-04-14T13:09:55Z</time>
      </trkpt>
      <trkpt lat="42.86931" lon="-0.05437">
        <ele>1775</ele>
        <time>2018-04-14T13:10:00Z</time>
      </trkpt>
      <trkpt lat="42.86943" lon="-0.05415">
        <ele>1771</ele>
        <time>2018-04-14T13:10:04Z</time>
      </trkpt>
      <trkpt lat="42.86942" lon="-0.05389">
        <ele>1769</ele>
        <time>2018-04-14T13:10:08Z</time>
      </trkpt>
      <trkpt lat="42.86956" lon="-0.05406">
        <ele>1767</ele>
        <time>2018-04-14T13:11:34Z</time>
      </trkpt>
      <trkpt lat="42.86952" lon="-0.0538">
        <ele>1767</ele>
        <time>2018-04-14T13:12:45Z</time>
      </trkpt>
      <trkpt lat="42.86955" lon="-0.05352">
        <ele>1766</ele>
        <time>2018-04-14T13:12:52Z</time>
      </trkpt>
      <trkpt lat="42.86955" lon="-0.05327">
        <ele>1761</ele>
        <time>2018-04-14T13:12:56Z</time>
      </trkpt>
      <trkpt lat="42.86972" lon="-0.05315">
        <ele>1755</ele>
        <time>2018-04-14T13:13:03Z</time>
      </trkpt>
      <trkpt lat="42.86995" lon="-0.05319">
        <ele>1750</ele>
        <time>2018-04-14T13:13:08Z</time>
      </trkpt>
      <trkpt lat="42.87014" lon="-0.05335">
        <ele>1736</ele>
        <time>2018-04-14T13:13:11Z</time>
      </trkpt>
      <trkpt lat="42.87023" lon="-0.0531">
        <ele>1721</ele>
        <time>2018-04-14T13:13:25Z</time>
      </trkpt>
      <trkpt lat="42.87019" lon="-0.05285">
        <ele>1718</ele>
        <time>2018-04-14T13:13:30Z</time>
      </trkpt>
      <trkpt lat="42.87039" lon="-0.05281">
        <ele>1712</ele>
        <time>2018-04-14T13:13:49Z</time>
      </trkpt>
      <trkpt lat="42.87056" lon="-0.05296">
        <ele>1710</ele>
        <time>2018-04-14T13:13:53Z</time>
      </trkpt>
      <trkpt lat="42.8707" lon="-0.05312">
        <ele>1708</ele>
        <time>2018-04-14T13:14:02Z</time>
      </trkpt>
      <trkpt lat="42.87081" lon="-0.05333">
        <ele>1702</ele>
        <time>2018-04-14T13:14:06Z</time>
      </trkpt>
      <trkpt lat="42.87094" lon="-0.05354">
        <ele>1689</ele>
        <time>2018-04-14T13:14:11Z</time>
      </trkpt>
      <trkpt lat="42.8711" lon="-0.05342">
        <ele>1686</ele>
        <time>2018-04-14T13:14:19Z</time>
      </trkpt>
      <trkpt lat="42.8712" lon="-0.05366">
        <ele>1681</ele>
        <time>2018-04-14T13:14:27Z</time>
      </trkpt>
      <trkpt lat="42.87137" lon="-0.05358">
        <ele>1677</ele>
        <time>2018-04-14T13:14:36Z</time>
      </trkpt>
      <trkpt lat="42.87154" lon="-0.05369">
        <ele>1674</ele>
        <time>2018-04-14T13:15:05Z</time>
      </trkpt>
      <trkpt lat="42.87168" lon="-0.05348">
        <ele>1651</ele>
        <time>2018-04-14T13:15:09Z</time>
      </trkpt>
      <trkpt lat="42.87181" lon="-0.0533">
        <ele>1644</ele>
        <time>2018-04-14T13:15:30Z</time>
      </trkpt>
      <trkpt lat="42.87199" lon="-0.05339">
        <ele>1640</ele>
        <time>2018-04-14T13:15:38Z</time>
      </trkpt>
      <trkpt lat="42.87217" lon="-0.05336">
        <ele>1631</ele>
        <time>2018-04-14T13:15:47Z</time>
      </trkpt>
      <trkpt lat="42.87234" lon="-0.05324">
        <ele>1614</ele>
        <time>2018-04-14T13:15:58Z</time>
      </trkpt>
      <trkpt lat="42.87252" lon="-0.05336">
        <ele>1604</ele>
        <time>2018-04-14T13:16:09Z</time>
      </trkpt>
      <trkpt lat="42.87271" lon="-0.05344">
        <ele>1601</ele>
        <time>2018-04-14T13:16:13Z</time>
      </trkpt>
      <trkpt lat="42.8727" lon="-0.0532">
        <ele>1593</ele>
        <time>2018-04-14T13:16:27Z</time>
      </trkpt>
      <trkpt lat="42.87261" lon="-0.05295">
        <ele>1591</ele>
        <time>2018-04-14T13:16:49Z</time>
      </trkpt>
      <trkpt lat="42.8727" lon="-0.0527">
        <ele>1589</ele>
        <time>2018-04-14T13:16:53Z</time>
      </trkpt>
      <trkpt lat="42.87278" lon="-0.05247">
        <ele>1581</ele>
        <time>2018-04-14T13:16:56Z</time>
      </trkpt>
      <trkpt lat="42.87293" lon="-0.05235">
        <ele>1579</ele>
        <time>2018-04-14T13:17:01Z</time>
      </trkpt>
      <trkpt lat="42.87295" lon="-0.05262">
        <ele>1586</ele>
        <time>2018-04-14T13:17:14Z</time>
      </trkpt>
      <trkpt lat="42.87306" lon="-0.05287">
        <ele>1586</ele>
        <time>2018-04-14T13:17:23Z</time>
      </trkpt>
      <trkpt lat="42.87316" lon="-0.0531">
        <ele>1584</ele>
        <time>2018-04-14T13:17:28Z</time>
      </trkpt>
      <trkpt lat="42.87321" lon="-0.05335">
        <ele>1586</ele>
        <time>2018-04-14T13:17:51Z</time>
      </trkpt>
      <trkpt lat="42.87339" lon="-0.05338">
        <ele>1578</ele>
        <time>2018-04-14T13:18:08Z</time>
      </trkpt>
      <trkpt lat="42.87355" lon="-0.05325">
        <ele>1572</ele>
        <time>2018-04-14T13:18:15Z</time>
      </trkpt>
      <trkpt lat="42.87368" lon="-0.05307">
        <ele>1569</ele>
        <time>2018-04-14T13:18:22Z</time>
      </trkpt>
      <trkpt lat="42.87375" lon="-0.05282">
        <ele>1568</ele>
        <time>2018-04-14T13:18:29Z</time>
      </trkpt>
      <trkpt lat="42.87393" lon="-0.05291">
        <ele>1566</ele>
        <time>2018-04-14T13:18:44Z</time>
      </trkpt>
      <trkpt lat="42.87404" lon="-0.05311">
        <ele>1567</ele>
        <time>2018-04-14T13:24:06Z</time>
      </trkpt>
      <trkpt lat="42.87423" lon="-0.05312">
        <ele>1564</ele>
        <time>2018-04-14T13:24:49Z</time>
      </trkpt>
      <trkpt lat="42.87433" lon="-0.05291">
        <ele>1562</ele>
        <time>2018-04-14T13:25:08Z</time>
      </trkpt>
      <trkpt lat="42.87441" lon="-0.05268">
        <ele>1560</ele>
        <time>2018-04-14T13:25:29Z</time>
      </trkpt>
      <trkpt lat="42.8745" lon="-0.05246">
        <ele>1548</ele>
        <time>2018-04-14T13:25:54Z</time>
      </trkpt>
      <trkpt lat="42.87462" lon="-0.05228">
        <ele>1547</ele>
        <time>2018-04-14T13:26:17Z</time>
      </trkpt>
      <trkpt lat="42.87475" lon="-0.0521">
        <ele>1546</ele>
        <time>2018-04-14T13:26:41Z</time>
      </trkpt>
      <trkpt lat="42.87486" lon="-0.05189">
        <ele>1543</ele>
        <time>2018-04-14T13:26:58Z</time>
      </trkpt>
      <trkpt lat="42.87496" lon="-0.05167">
        <ele>1538</ele>
        <time>2018-04-14T13:27:13Z</time>
      </trkpt>
      <trkpt lat="42.87511" lon="-0.05153">
        <ele>1536</ele>
        <time>2018-04-14T13:27:28Z</time>
      </trkpt>
      <trkpt lat="42.87523" lon="-0.05133">
        <ele>1535</ele>
        <time>2018-04-14T13:27:41Z</time>
      </trkpt>
      <trkpt lat="42.87534" lon="-0.05113">
        <ele>1533</ele>
        <time>2018-04-14T13:27:53Z</time>
      </trkpt>
      <trkpt lat="42.87545" lon="-0.05093">
        <ele>1533</ele>
        <time>2018-04-14T13:28:09Z</time>
      </trkpt>
      <trkpt lat="42.87558" lon="-0.05076">
        <ele>1520</ele>
        <time>2018-04-14T13:28:39Z</time>
      </trkpt>
      <trkpt lat="42.87576" lon="-0.05067">
        <ele>1523</ele>
        <time>2018-04-14T13:28:54Z</time>
      </trkpt>
      <trkpt lat="42.87593" lon="-0.05056">
        <ele>1530</ele>
        <time>2018-04-14T13:29:10Z</time>
      </trkpt>
      <trkpt lat="42.87608" lon="-0.0507">
        <ele>1532</ele>
        <time>2018-04-14T13:29:31Z</time>
      </trkpt>
      <trkpt lat="42.87624" lon="-0.0506">
        <ele>1533</ele>
        <time>2018-04-14T13:29:48Z</time>
      </trkpt>
      <trkpt lat="42.87641" lon="-0.05049">
        <ele>1533</ele>
        <time>2018-04-14T13:30:02Z</time>
      </trkpt>
      <trkpt lat="42.87653" lon="-0.05028">
        <ele>1530</ele>
        <time>2018-04-14T13:30:19Z</time>
      </trkpt>
      <trkpt lat="42.87664" lon="-0.05009">
        <ele>1528</ele>
        <time>2018-04-14T13:30:34Z</time>
      </trkpt>
      <trkpt lat="42.87672" lon="-0.04986">
        <ele>1528</ele>
        <time>2018-04-14T13:30:48Z</time>
      </trkpt>
      <trkpt lat="42.87676" lon="-0.04961">
        <ele>1525</ele>
        <time>2018-04-14T13:31:05Z</time>
      </trkpt>
      <trkpt lat="42.87684" lon="-0.04938">
        <ele>1518</ele>
        <time>2018-04-14T13:31:24Z</time>
      </trkpt>
      <trkpt lat="42.87693" lon="-0.04915">
        <ele>1496</ele>
        <time>2018-04-14T13:31:43Z</time>
      </trkpt>
      <trkpt lat="42.87699" lon="-0.04891">
        <ele>1495</ele>
        <time>2018-04-14T13:32:00Z</time>
      </trkpt>
      <trkpt lat="42.87707" lon="-0.04869">
        <ele>1492</ele>
        <time>2018-04-14T13:32:16Z</time>
      </trkpt>
      <trkpt lat="42.87715" lon="-0.04846">
        <ele>1490</ele>
        <time>2018-04-14T13:32:41Z</time>
      </trkpt>
      <trkpt lat="42.87725" lon="-0.04825">
        <ele>1468</ele>
        <time>2018-04-14T13:33:02Z</time>
      </trkpt>
      <trkpt lat="42.87732" lon="-0.04802">
        <ele>1463</ele>
        <time>2018-04-14T13:33:20Z</time>
      </trkpt>
      <trkpt lat="42.87744" lon="-0.04783">
        <ele>1458</ele>
        <time>2018-04-14T13:33:39Z</time>
      </trkpt>
      <trkpt lat="42.87757" lon="-0.04765">
        <ele>1468</ele>
        <time>2018-04-14T13:34:43Z</time>
      </trkpt>
      <trkpt lat="42.8777" lon="-0.04746">
        <ele>1452</ele>
        <time>2018-04-14T13:35:01Z</time>
      </trkpt>
      <trkpt lat="42.87787" lon="-0.04737">
        <ele>1454</ele>
        <time>2018-04-14T13:35:21Z</time>
      </trkpt>
      <trkpt lat="42.87803" lon="-0.04722">
        <ele>1455</ele>
        <time>2018-04-14T13:35:41Z</time>
      </trkpt>
      <trkpt lat="42.87814" lon="-0.04703">
        <ele>1453</ele>
        <time>2018-04-14T13:36:13Z</time>
      </trkpt>
      <trkpt lat="42.87817" lon="-0.04678">
        <ele>1450</ele>
        <time>2018-04-14T13:36:28Z</time>
      </trkpt>
      <trkpt lat="42.87826" lon="-0.04655">
        <ele>1436</ele>
        <time>2018-04-14T13:36:47Z</time>
      </trkpt>
      <trkpt lat="42.87818" lon="-0.04633">
        <ele>1424</ele>
        <time>2018-04-14T13:37:55Z</time>
      </trkpt>
      <trkpt lat="42.87823" lon="-0.04609">
        <ele>1419</ele>
        <time>2018-04-14T13:38:20Z</time>
      </trkpt>
      <trkpt lat="42.87829" lon="-0.04586">
        <ele>1418</ele>
        <time>2018-04-14T13:38:39Z</time>
      </trkpt>
      <trkpt lat="42.87814" lon="-0.04599">
        <ele>1417</ele>
        <time>2018-04-14T13:38:57Z</time>
      </trkpt>
      <trkpt lat="42.878" lon="-0.04616">
        <ele>1417</ele>
        <time>2018-04-14T13:39:11Z</time>
      </trkpt>
      <trkpt lat="42.87786" lon="-0.04634">
        <ele>1418</ele>
        <time>2018-04-14T13:39:26Z</time>
      </trkpt>
      <trkpt lat="42.87769" lon="-0.04645">
        <ele>1417</ele>
        <time>2018-04-14T13:39:39Z</time>
      </trkpt>
      <trkpt lat="42.87751" lon="-0.04645">
        <ele>1416</ele>
        <time>2018-04-14T13:39:53Z</time>
      </trkpt>
      <trkpt lat="42.87732" lon="-0.04641">
        <ele>1397</ele>
        <time>2018-04-14T13:40:07Z</time>
      </trkpt>
      <trkpt lat="42.87714" lon="-0.04649">
        <ele>1395</ele>
        <time>2018-04-14T13:40:23Z</time>
      </trkpt>
      <trkpt lat="42.87699" lon="-0.04664">
        <ele>1393</ele>
        <time>2018-04-14T13:40:37Z</time>
      </trkpt>
      <trkpt lat="42.87687" lon="-0.04682">
        <ele>1409</ele>
        <time>2018-04-14T13:40:52Z</time>
      </trkpt>
      <trkpt lat="42.87675" lon="-0.04704">
        <ele>1414</ele>
        <time>2018-04-14T13:41:05Z</time>
      </trkpt>
      <trkpt lat="42.87668" lon="-0.04726">
        <ele>1418</ele>
        <time>2018-04-14T13:41:18Z</time>
      </trkpt>
      <trkpt lat="42.87662" lon="-0.04702">
        <ele>1394</ele>
        <time>2018-04-14T13:41:51Z</time>
      </trkpt>
      <trkpt lat="42.8767" lon="-0.04678">
        <ele>1401</ele>
        <time>2018-04-14T13:42:04Z</time>
      </trkpt>
      <trkpt lat="42.87679" lon="-0.04655">
        <ele>1390</ele>
        <time>2018-04-14T13:42:18Z</time>
      </trkpt>
      <trkpt lat="42.8769" lon="-0.04633">
        <ele>1389</ele>
        <time>2018-04-14T13:42:32Z</time>
      </trkpt>
      <trkpt lat="42.87706" lon="-0.04618">
        <ele>1388</ele>
        <time>2018-04-14T13:42:46Z</time>
      </trkpt>
      <trkpt lat="42.87688" lon="-0.04625">
        <ele>1387</ele>
        <time>2018-04-14T13:43:22Z</time>
      </trkpt>
      <trkpt lat="42.87673" lon="-0.04643">
        <ele>1389</ele>
        <time>2018-04-14T13:43:38Z</time>
      </trkpt>
      <trkpt lat="42.87661" lon="-0.04661">
        <ele>1386</ele>
        <time>2018-04-14T13:43:52Z</time>
      </trkpt>
      <trkpt lat="42.87647" lon="-0.04677">
        <ele>1390</ele>
        <time>2018-04-14T13:44:05Z</time>
      </trkpt>
      <trkpt lat="42.87633" lon="-0.04694">
        <ele>1390</ele>
        <time>2018-04-14T13:44:18Z</time>
      </trkpt>
      <trkpt lat="42.8762" lon="-0.04714">
        <ele>1391</ele>
        <time>2018-04-14T13:44:29Z</time>
      </trkpt>
      <trkpt lat="42.87605" lon="-0.04728">
        <ele>1389</ele>
        <time>2018-04-14T13:44:41Z</time>
      </trkpt>
      <trkpt lat="42.8759" lon="-0.04743">
        <ele>1386</ele>
        <time>2018-04-14T13:44:54Z</time>
      </trkpt>
      <trkpt lat="42.87593" lon="-0.04717">
        <ele>1387</ele>
        <time>2018-04-14T13:45:14Z</time>
      </trkpt>
      <trkpt lat="42.87605" lon="-0.04698">
        <ele>1387</ele>
        <time>2018-04-14T13:45:26Z</time>
      </trkpt>
      <trkpt lat="42.87617" lon="-0.04677">
        <ele>1386</ele>
        <time>2018-04-14T13:45:39Z</time>
      </trkpt>
      <trkpt lat="42.87625" lon="-0.04653">
        <ele>1377</ele>
        <time>2018-04-14T13:45:52Z</time>
      </trkpt>
      <trkpt lat="42.87631" lon="-0.0463">
        <ele>1377</ele>
        <time>2018-04-14T13:46:05Z</time>
      </trkpt>
      <trkpt lat="42.87633" lon="-0.04605">
        <ele>1375</ele>
        <time>2018-04-14T13:46:22Z</time>
      </trkpt>
      <trkpt lat="42.87642" lon="-0.04584">
        <ele>1373</ele>
        <time>2018-04-14T13:46:38Z</time>
      </trkpt>
      <trkpt lat="42.87654" lon="-0.04563">
        <ele>1369</ele>
        <time>2018-04-14T13:46:55Z</time>
      </trkpt>
      <trkpt lat="42.87667" lon="-0.04546">
        <ele>1365</ele>
        <time>2018-04-14T13:47:12Z</time>
      </trkpt>
      <trkpt lat="42.87677" lon="-0.04525">
        <ele>1363</ele>
        <time>2018-04-14T13:47:28Z</time>
      </trkpt>
      <trkpt lat="42.87688" lon="-0.04504">
        <ele>1361</ele>
        <time>2018-04-14T13:47:45Z</time>
      </trkpt>
      <trkpt lat="42.87686" lon="-0.04478">
        <ele>1352</ele>
        <time>2018-04-14T13:47:58Z</time>
      </trkpt>
      <trkpt lat="42.87684" lon="-0.04453">
        <ele>1349</ele>
        <time>2018-04-14T13:48:13Z</time>
      </trkpt>
      <trkpt lat="42.87686" lon="-0.04428">
        <ele>1348</ele>
        <time>2018-04-14T13:48:29Z</time>
      </trkpt>
      <trkpt lat="42.87686" lon="-0.04403">
        <ele>1340</ele>
        <time>2018-04-14T14:09:52Z</time>
      </trkpt>
    </trkseg>
  </trk>
</gpx>